sensor_id;sensor_type;location;lat;lon;timestamp;temperature;humidity
9949;DHT22;5013;51.840;8.276;2024-02-14T00:02:21;7.10;1.00
9949;DHT22;5013;51.840;8.276;2024-02-14T00:04:46;7.10;1.00
9949;DHT22;5013;51.840;8.276;2024-02-14T00:07:12;7.20;1.00
9949;DHT22;5013;51.840;8.276;2024-02-14T00:09:38;7.20;1.00
9949;DHT22;5013;51.840;8.276;2024-02-14T00:12:04;7.20;1.00
9949;DHT22;5013;51.840;8.276;2024-02-14T00:14:29;7.20;1.00
9949;DHT22;5013;51.840;8.276;2024-02-14T00:16:55;7.20;1.00
9949;DHT22;5013;51.840;8.276;2024-02-14T00:19:21;7.30;1.00
9949;DHT22;5013;51.840;8.276;2024-02-14T00:21:46;7.30;99.90
9949;DHT22;5013;51.840;8.276;2024-02-14T00:24:12;7.40;96.90
9949;DHT22;5013;51.840;8.276;2024-02-14T00:26:37;7.50;1.00
9949;DHT22;5013;51.840;8.276;2024-02-14T00:29:04;7.50;1.00
9949;DHT22;5013;51.840;8.276;2024-02-14T00:31:30;7.60;1.00
9949;DHT22;5013;51.840;8.276;2024-02-14T00:33:56;7.70;99.90
9949;DHT22;5013;51.840;8.276;2024-02-14T00:36:21;7.80;90.40
9949;DHT22;5013;51.840;8.276;2024-02-14T00:38:47;7.80;68.00
9949;DHT22;5013;51.840;8.276;2024-02-14T00:41:12;7.90;1.00
9949;DHT22;5013;51.840;8.276;2024-02-14T00:43:38;7.90;1.00
9949;DHT22;5013;51.840;8.276;2024-02-14T00:46:03;7.90;1.00
9949;DHT22;5013;51.840;8.276;2024-02-14T00:48:29;7.90;1.00
9949;DHT22;5013;51.840;8.276;2024-02-14T00:50:54;7.90;1.00
9949;DHT22;5013;51.840;8.276;2024-02-14T00:53:20;8.00;1.00
9949;DHT22;5013;51.840;8.276;2024-02-14T00:55:46;8.00;1.00
9949;DHT22;5013;51.840;8.276;2024-02-14T00:58:12;8.00;1.00
9949;DHT22;5013;51.840;8.276;2024-02-14T01:00:37;8.00;1.00
9949;DHT22;5013;51.840;8.276;2024-02-14T01:03:03;8.10;1.00
9949;DHT22;5013;51.840;8.276;2024-02-14T01:05:29;8.10;1.00
9949;DHT22;5013;51.840;8.276;2024-02-14T01:07:54;8.00;1.00
9949;DHT22;5013;51.840;8.276;2024-02-14T01:10:20;8.10;1.00
9949;DHT22;5013;51.840;8.276;2024-02-14T01:12:46;8.10;1.00
9949;DHT22;5013;51.840;8.276;2024-02-14T01:15:11;8.10;1.00
9949;DHT22;5013;51.840;8.276;2024-02-14T01:17:37;8.10;72.80
9949;DHT22;5013;51.840;8.276;2024-02-14T01:20:07;8.20;99.90
9949;DHT22;5013;51.840;8.276;2024-02-14T01:22:34;8.10;99.90
9949;DHT22;5013;51.840;8.276;2024-02-14T01:25:01;8.10;1.00
9949;DHT22;5013;51.840;8.276;2024-02-14T01:27:26;8.10;1.00
9949;DHT22;5013;51.840;8.276;2024-02-14T01:29:53;8.10;1.00
9949;DHT22;5013;51.840;8.276;2024-02-14T01:32:20;8.20;1.00
9949;DHT22;5013;51.840;8.276;2024-02-14T01:34:45;8.10;99.90
9949;DHT22;5013;51.840;8.276;2024-02-14T01:37:11;8.10;1.00
9949;DHT22;5013;51.840;8.276;2024-02-14T01:39:37;8.10;1.00
9949;DHT22;5013;51.840;8.276;2024-02-14T01:42:03;8.10;1.00
9949;DHT22;5013;51.840;8.276;2024-02-14T01:44:33;8.10;31.80
9949;DHT22;5013;51.840;8.276;2024-02-14T01:47:02;8.10;99.90
9949;DHT22;5013;51.840;8.276;2024-02-14T01:49:28;8.10;99.90
9949;DHT22;5013;51.840;8.276;2024-02-14T01:51:55;8.10;1.00
9949;DHT22;5013;51.840;8.276;2024-02-14T01:54:21;8.10;1.00
9949;DHT22;5013;51.840;8.276;2024-02-14T01:56:47;8.10;99.90
9949;DHT22;5013;51.840;8.276;2024-02-14T01:59:13;8.10;99.90
9949;DHT22;5013;51.840;8.276;2024-02-14T02:01:41;8.10;99.90
9949;DHT22;5013;51.840;8.276;2024-02-14T02:04:06;8.10;99.90
9949;DHT22;5013;51.840;8.276;2024-02-14T02:06:32;8.10;99.90
9949;DHT22;5013;51.840;8.276;2024-02-14T02:08:58;8.10;99.90
9949;DHT22;5013;51.840;8.276;2024-02-14T02:11:25;8.10;99.90
9949;DHT22;5013;51.840;8.276;2024-02-14T02:13:50;8.10;92.70
9949;DHT22;5013;51.840;8.276;2024-02-14T02:16:16;8.20;1.00
9949;DHT22;5013;51.840;8.276;2024-02-14T02:18:44;8.20;1.00
9949;DHT22;5013;51.840;8.276;2024-02-14T02:21:10;8.20;99.90
9949;DHT22;5013;51.840;8.276;2024-02-14T02:23:38;8.20;99.90
9949;DHT22;5013;51.840;8.276;2024-02-14T02:26:06;8.20;99.90
9949;DHT22;5013;51.840;8.276;2024-02-14T02:28:31;8.30;99.90
9949;DHT22;5013;51.840;8.276;2024-02-14T02:30:57;8.30;1.00
9949;DHT22;5013;51.840;8.276;2024-02-14T02:33:22;8.30;1.00
9949;DHT22;5013;51.840;8.276;2024-02-14T02:35:48;8.30;1.00
9949;DHT22;5013;51.840;8.276;2024-02-14T02:38:15;8.30;1.00
9949;DHT22;5013;51.840;8.276;2024-02-14T02:40:41;8.30;1.00
9949;DHT22;5013;51.840;8.276;2024-02-14T02:43:07;8.40;1.00
9949;DHT22;5013;51.840;8.276;2024-02-14T02:45:33;8.30;1.00
9949;DHT22;5013;51.840;8.276;2024-02-14T02:47:58;8.40;1.00
9949;DHT22;5013;51.840;8.276;2024-02-14T02:50:26;8.30;1.00
9949;DHT22;5013;51.840;8.276;2024-02-14T02:52:52;8.40;1.00
9949;DHT22;5013;51.840;8.276;2024-02-14T02:55:18;8.30;1.00
9949;DHT22;5013;51.840;8.276;2024-02-14T02:57:43;8.40;1.00
9949;DHT22;5013;51.840;8.276;2024-02-14T03:00:11;8.40;1.00
9949;DHT22;5013;51.840;8.276;2024-02-14T03:02:38;8.40;1.00
9949;DHT22;5013;51.840;8.276;2024-02-14T03:05:07;8.40;1.00
9949;DHT22;5013;51.840;8.276;2024-02-14T03:07:36;8.40;1.00
9949;DHT22;5013;51.840;8.276;2024-02-14T03:10:01;8.40;1.00
9949;DHT22;5013;51.840;8.276;2024-02-14T03:12:29;8.40;1.00
9949;DHT22;5013;51.840;8.276;2024-02-14T03:14:56;8.40;99.90
9949;DHT22;5013;51.840;8.276;2024-02-14T03:17:23;8.40;99.90
9949;DHT22;5013;51.840;8.276;2024-02-14T03:19:49;8.50;99.90
9949;DHT22;5013;51.840;8.276;2024-02-14T03:22:17;8.50;99.90
9949;DHT22;5013;51.840;8.276;2024-02-14T03:24:44;8.50;99.90
9949;DHT22;5013;51.840;8.276;2024-02-14T03:27:12;8.50;99.90
9949;DHT22;5013;51.840;8.276;2024-02-14T03:29:37;8.50;99.90
9949;DHT22;5013;51.840;8.276;2024-02-14T03:32:04;8.50;99.90
9949;DHT22;5013;51.840;8.276;2024-02-14T03:34:31;8.60;99.90
9949;DHT22;5013;51.840;8.276;2024-02-14T03:36:59;8.50;99.90
9949;DHT22;5013;51.840;8.276;2024-02-14T03:39:25;8.60;99.90
9949;DHT22;5013;51.840;8.276;2024-02-14T03:41:51;8.60;99.90
9949;DHT22;5013;51.840;8.276;2024-02-14T03:44:18;8.70;99.90
9949;DHT22;5013;51.840;8.276;2024-02-14T03:46:43;8.60;99.90
9949;DHT22;5013;51.840;8.276;2024-02-14T03:49:09;8.60;99.90
9949;DHT22;5013;51.840;8.276;2024-02-14T03:51:34;8.70;1.00
9949;DHT22;5013;51.840;8.276;2024-02-14T03:54:00;8.70;1.00
9949;DHT22;5013;51.840;8.276;2024-02-14T03:56:25;8.70;1.00
9949;DHT22;5013;51.840;8.276;2024-02-14T03:58:51;8.70;1.00
9949;DHT22;5013;51.840;8.276;2024-02-14T04:01:17;8.80;1.50
9949;DHT22;5013;51.840;8.276;2024-02-14T04:03:42;8.80;99.90
9949;DHT22;5013;51.840;8.276;2024-02-14T04:06:08;8.80;94.30
9949;DHT22;5013;51.840;8.276;2024-02-14T04:08:33;8.80;99.90
9949;DHT22;5013;51.840;8.276;2024-02-14T04:11:00;8.80;99.90
9949;DHT22;5013;51.840;8.276;2024-02-14T04:13:26;8.80;99.90
9949;DHT22;5013;51.840;8.276;2024-02-14T04:15:51;8.80;99.90
9949;DHT22;5013;51.840;8.276;2024-02-14T04:18:17;8.80;1.00
9949;DHT22;5013;51.840;8.276;2024-02-14T04:20:44;8.80;1.00
9949;DHT22;5013;51.840;8.276;2024-02-14T04:23:09;8.90;1.00
9949;DHT22;5013;51.840;8.276;2024-02-14T04:25:35;8.80;92.30
9949;DHT22;5013;51.840;8.276;2024-02-14T04:28:03;8.80;1.00
9949;DHT22;5013;51.840;8.276;2024-02-14T04:30:28;8.70;99.90
9949;DHT22;5013;51.840;8.276;2024-02-14T04:32:54;8.80;1.00
9949;DHT22;5013;51.840;8.276;2024-02-14T04:35:20;8.80;1.00
9949;DHT22;5013;51.840;8.276;2024-02-14T04:37:46;8.80;1.00
9949;DHT22;5013;51.840;8.276;2024-02-14T04:40:13;8.80;1.00
9949;DHT22;5013;51.840;8.276;2024-02-14T04:42:39;8.80;1.00
9949;DHT22;5013;51.840;8.276;2024-02-14T04:45:05;8.80;99.90
9949;DHT22;5013;51.840;8.276;2024-02-14T04:47:31;8.80;1.00
9949;DHT22;5013;51.840;8.276;2024-02-14T04:49:57;8.90;99.90
9949;DHT22;5013;51.840;8.276;2024-02-14T04:52:23;8.80;1.00
9949;DHT22;5013;51.840;8.276;2024-02-14T04:54:49;8.90;1.00
9949;DHT22;5013;51.840;8.276;2024-02-14T04:57:14;8.90;99.90
9949;DHT22;5013;51.840;8.276;2024-02-14T04:59:40;8.90;99.90
9949;DHT22;5013;51.840;8.276;2024-02-14T05:02:06;8.90;99.90
9949;DHT22;5013;51.840;8.276;2024-02-14T05:04:32;8.90;1.00
9949;DHT22;5013;51.840;8.276;2024-02-14T05:07:00;8.90;1.00
9949;DHT22;5013;51.840;8.276;2024-02-14T05:09:26;8.90;1.00
9949;DHT22;5013;51.840;8.276;2024-02-14T05:11:51;8.90;90.60
9949;DHT22;5013;51.840;8.276;2024-02-14T05:14:17;8.90;99.90
9949;DHT22;5013;51.840;8.276;2024-02-14T05:16:43;8.90;99.90
9949;DHT22;5013;51.840;8.276;2024-02-14T05:19:09;9.00;1.00
9949;DHT22;5013;51.840;8.276;2024-02-14T05:21:35;9.00;99.90
9949;DHT22;5013;51.840;8.276;2024-02-14T05:24:01;8.90;99.90
9949;DHT22;5013;51.840;8.276;2024-02-14T05:26:26;9.00;99.90
9949;DHT22;5013;51.840;8.276;2024-02-14T05:28:52;9.00;1.00
9949;DHT22;5013;51.840;8.276;2024-02-14T05:31:17;9.00;1.00
9949;DHT22;5013;51.840;8.276;2024-02-14T05:33:43;8.90;1.00
9949;DHT22;5013;51.840;8.276;2024-02-14T05:36:09;8.90;99.90
9949;DHT22;5013;51.840;8.276;2024-02-14T05:38:34;9.00;99.90
9949;DHT22;5013;51.840;8.276;2024-02-14T05:41:01;8.90;1.00
9949;DHT22;5013;51.840;8.276;2024-02-14T05:43:26;8.90;1.00
9949;DHT22;5013;51.840;8.276;2024-02-14T05:45:52;9.00;1.00
9949;DHT22;5013;51.840;8.276;2024-02-14T05:48:19;9.00;1.00
9949;DHT22;5013;51.840;8.276;2024-02-14T05:50:45;8.90;1.00
9949;DHT22;5013;51.840;8.276;2024-02-14T05:53:10;9.00;1.00
9949;DHT22;5013;51.840;8.276;2024-02-14T05:55:38;9.00;61.80
9949;DHT22;5013;51.840;8.276;2024-02-14T05:58:03;8.90;99.90
9949;DHT22;5013;51.840;8.276;2024-02-14T06:00:29;8.90;99.90
9949;DHT22;5013;51.840;8.276;2024-02-14T06:02:55;8.90;99.90
9949;DHT22;5013;51.840;8.276;2024-02-14T06:05:21;8.90;99.90
9949;DHT22;5013;51.840;8.276;2024-02-14T06:07:46;8.90;99.90
9949;DHT22;5013;51.840;8.276;2024-02-14T06:10:12;8.90;99.90
9949;DHT22;5013;51.840;8.276;2024-02-14T06:12:38;8.90;99.90
9949;DHT22;5013;51.840;8.276;2024-02-14T06:15:06;8.90;99.90
9949;DHT22;5013;51.840;8.276;2024-02-14T06:17:33;8.90;99.90
9949;DHT22;5013;51.840;8.276;2024-02-14T06:19:58;8.90;99.90
9949;DHT22;5013;51.840;8.276;2024-02-14T06:22:24;8.90;99.90
9949;DHT22;5013;51.840;8.276;2024-02-14T06:24:49;8.90;99.90
9949;DHT22;5013;51.840;8.276;2024-02-14T06:27:15;8.90;99.90
9949;DHT22;5013;51.840;8.276;2024-02-14T06:29:44;8.90;99.90
9949;DHT22;5013;51.840;8.276;2024-02-14T06:32:13;8.90;99.90
9949;DHT22;5013;51.840;8.276;2024-02-14T06:34:39;8.90;99.90
9949;DHT22;5013;51.840;8.276;2024-02-14T06:37:05;8.90;99.90
9949;DHT22;5013;51.840;8.276;2024-02-14T06:39:30;8.90;99.90
9949;DHT22;5013;51.840;8.276;2024-02-14T06:41:56;8.90;99.90
9949;DHT22;5013;51.840;8.276;2024-02-14T06:44:24;9.00;99.90
9949;DHT22;5013;51.840;8.276;2024-02-14T06:46:50;9.00;99.90
9949;DHT22;5013;51.840;8.276;2024-02-14T06:49:16;9.00;99.90
9949;DHT22;5013;51.840;8.276;2024-02-14T06:51:42;9.00;99.90
9949;DHT22;5013;51.840;8.276;2024-02-14T06:54:08;9.00;99.90
9949;DHT22;5013;51.840;8.276;2024-02-14T06:56:34;9.10;99.90
9949;DHT22;5013;51.840;8.276;2024-02-14T06:58:59;9.10;99.90
9949;DHT22;5013;51.840;8.276;2024-02-14T07:01:29;9.10;99.90
9949;DHT22;5013;51.840;8.276;2024-02-14T07:03:54;9.10;99.90
9949;DHT22;5013;51.840;8.276;2024-02-14T07:06:20;9.10;99.90
9949;DHT22;5013;51.840;8.276;2024-02-14T07:08:46;9.20;99.90
9949;DHT22;5013;51.840;8.276;2024-02-14T07:11:13;9.20;99.90
9949;DHT22;5013;51.840;8.276;2024-02-14T07:13:38;9.20;99.90
9949;DHT22;5013;51.840;8.276;2024-02-14T07:16:04;9.20;99.90
9949;DHT22;5013;51.840;8.276;2024-02-14T07:18:30;9.20;99.90
9949;DHT22;5013;51.840;8.276;2024-02-14T07:20:55;9.20;99.90
9949;DHT22;5013;51.840;8.276;2024-02-14T07:23:21;9.20;99.90
9949;DHT22;5013;51.840;8.276;2024-02-14T07:25:47;9.30;99.90
9949;DHT22;5013;51.840;8.276;2024-02-14T07:28:12;9.30;99.90
9949;DHT22;5013;51.840;8.276;2024-02-14T07:30:38;9.30;99.90
9949;DHT22;5013;51.840;8.276;2024-02-14T07:33:03;9.30;99.90
9949;DHT22;5013;51.840;8.276;2024-02-14T07:35:29;9.40;99.90
9949;DHT22;5013;51.840;8.276;2024-02-14T07:37:55;9.40;99.90
9949;DHT22;5013;51.840;8.276;2024-02-14T07:40:21;9.50;99.90
9949;DHT22;5013;51.840;8.276;2024-02-14T07:42:47;9.50;99.90
9949;DHT22;5013;51.840;8.276;2024-02-14T07:45:12;9.50;99.90
9949;DHT22;5013;51.840;8.276;2024-02-14T07:47:38;9.50;99.90
9949;DHT22;5013;51.840;8.276;2024-02-14T07:50:06;9.50;99.90
9949;DHT22;5013;51.840;8.276;2024-02-14T07:52:31;9.60;99.90
9949;DHT22;5013;51.840;8.276;2024-02-14T07:54:57;9.60;99.90
9949;DHT22;5013;51.840;8.276;2024-02-14T07:57:23;9.60;99.90
9949;DHT22;5013;51.840;8.276;2024-02-14T07:59:50;9.60;99.90
9949;DHT22;5013;51.840;8.276;2024-02-14T08:02:17;9.60;99.90
9949;DHT22;5013;51.840;8.276;2024-02-14T08:04:42;9.60;99.90
9949;DHT22;5013;51.840;8.276;2024-02-14T08:07:09;9.60;99.90
9949;DHT22;5013;51.840;8.276;2024-02-14T08:09:35;9.60;99.90
9949;DHT22;5013;51.840;8.276;2024-02-14T08:12:01;9.60;99.90
9949;DHT22;5013;51.840;8.276;2024-02-14T08:14:26;9.60;99.90
9949;DHT22;5013;51.840;8.276;2024-02-14T08:16:52;9.60;99.90
9949;DHT22;5013;51.840;8.276;2024-02-14T08:19:18;9.60;99.90
9949;DHT22;5013;51.840;8.276;2024-02-14T08:21:47;9.70;99.90
9949;DHT22;5013;51.840;8.276;2024-02-14T08:24:12;9.70;99.90
9949;DHT22;5013;51.840;8.276;2024-02-14T08:26:38;9.70;99.90
9949;DHT22;5013;51.840;8.276;2024-02-14T08:29:03;9.70;99.90
9949;DHT22;5013;51.840;8.276;2024-02-14T08:31:29;9.80;99.90
9949;DHT22;5013;51.840;8.276;2024-02-14T08:33:55;9.80;99.90
9949;DHT22;5013;51.840;8.276;2024-02-14T08:36:20;9.80;99.90
9949;DHT22;5013;51.840;8.276;2024-02-14T08:38:46;9.80;99.90
9949;DHT22;5013;51.840;8.276;2024-02-14T08:41:12;9.80;99.90
9949;DHT22;5013;51.840;8.276;2024-02-14T08:43:37;9.90;99.90
9949;DHT22;5013;51.840;8.276;2024-02-14T08:46:03;9.80;99.90
9949;DHT22;5013;51.840;8.276;2024-02-14T08:48:34;9.80;99.90
9949;DHT22;5013;51.840;8.276;2024-02-14T08:51:00;9.90;99.90
9949;DHT22;5013;51.840;8.276;2024-02-14T08:53:26;9.90;99.90
9949;DHT22;5013;51.840;8.276;2024-02-14T08:55:51;10.00;99.90
9949;DHT22;5013;51.840;8.276;2024-02-14T08:58:17;10.00;99.90
9949;DHT22;5013;51.840;8.276;2024-02-14T09:00:42;10.00;99.90
9949;DHT22;5013;51.840;8.276;2024-02-14T09:03:08;10.00;99.90
9949;DHT22;5013;51.840;8.276;2024-02-14T09:05:34;10.10;99.90
9949;DHT22;5013;51.840;8.276;2024-02-14T09:08:00;10.10;99.90
9949;DHT22;5013;51.840;8.276;2024-02-14T09:10:25;10.10;99.90
9949;DHT22;5013;51.840;8.276;2024-02-14T09:12:51;10.10;99.90
9949;DHT22;5013;51.840;8.276;2024-02-14T09:15:16;10.10;99.90
9949;DHT22;5013;51.840;8.276;2024-02-14T09:17:42;10.10;99.90
9949;DHT22;5013;51.840;8.276;2024-02-14T09:20:08;10.10;99.90
9949;DHT22;5013;51.840;8.276;2024-02-14T09:22:38;10.20;99.90
9949;DHT22;5013;51.840;8.276;2024-02-14T09:25:07;10.30;99.90
9949;DHT22;5013;51.840;8.276;2024-02-14T09:27:34;10.30;99.90
9949;DHT22;5013;51.840;8.276;2024-02-14T09:30:03;10.40;99.90
9949;DHT22;5013;51.840;8.276;2024-02-14T09:32:30;10.50;57.90
9949;DHT22;5013;51.840;8.276;2024-02-14T09:34:56;10.50;1.00
9949;DHT22;5013;51.840;8.276;2024-02-14T09:37:22;10.70;1.00
9949;DHT22;5013;51.840;8.276;2024-02-14T09:39:49;10.80;99.90
9949;DHT22;5013;51.840;8.276;2024-02-14T09:42:16;10.80;99.90
9949;DHT22;5013;51.840;8.276;2024-02-14T09:44:43;10.90;99.90
9949;DHT22;5013;51.840;8.276;2024-02-14T09:47:10;10.90;99.90
9949;DHT22;5013;51.840;8.276;2024-02-14T09:49:37;10.90;1.00
9949;DHT22;5013;51.840;8.276;2024-02-14T09:52:04;11.10;49.80
9949;DHT22;5013;51.840;8.276;2024-02-14T09:54:31;11.10;99.90
9949;DHT22;5013;51.840;8.276;2024-02-14T09:56:59;11.10;1.00
9949;DHT22;5013;51.840;8.276;2024-02-14T09:59:25;11.30;1.00
9949;DHT22;5013;51.840;8.276;2024-02-14T10:01:51;11.30;1.00
9949;DHT22;5013;51.840;8.276;2024-02-14T10:10:58;11.10;1.00
9949;DHT22;5013;51.840;8.276;2024-02-14T10:13:27;11.20;99.90
9949;DHT22;5013;51.840;8.276;2024-02-14T10:15:53;11.30;99.90
9949;DHT22;5013;51.840;8.276;2024-02-14T10:18:20;11.30;99.90
9949;DHT22;5013;51.840;8.276;2024-02-14T10:20:58;11.30;99.90
9949;DHT22;5013;51.840;8.276;2024-02-14T10:23:23;11.30;1.00
9949;DHT22;5013;51.840;8.276;2024-02-14T10:25:51;11.30;1.00
9949;DHT22;5013;51.840;8.276;2024-02-14T10:28:18;11.30;99.90
9949;DHT22;5013;51.840;8.276;2024-02-14T10:30:47;11.30;99.90
9949;DHT22;5013;51.840;8.276;2024-02-14T10:33:18;11.40;1.00
9949;DHT22;5013;51.840;8.276;2024-02-14T10:35:45;11.40;99.90
9949;DHT22;5013;51.840;8.276;2024-02-14T10:38:11;11.40;1.00
9949;DHT22;5013;51.840;8.276;2024-02-14T10:40:37;11.50;1.00
9949;DHT22;5013;51.840;8.276;2024-02-14T10:43:07;11.50;1.00
9949;DHT22;5013;51.840;8.276;2024-02-14T10:45:35;11.50;99.90
9949;DHT22;5013;51.840;8.276;2024-02-14T10:48:06;11.50;99.90
9949;DHT22;5013;51.840;8.276;2024-02-14T10:50:35;11.50;1.00
9949;DHT22;5013;51.840;8.276;2024-02-14T10:53:04;11.50;1.00
9949;DHT22;5013;51.840;8.276;2024-02-14T10:55:33;11.50;1.00
9949;DHT22;5013;51.840;8.276;2024-02-14T10:57:59;11.50;1.00
9949;DHT22;5013;51.840;8.276;2024-02-14T11:00:26;11.40;1.00
9949;DHT22;5013;51.840;8.276;2024-02-14T11:02:52;11.50;85.20
9949;DHT22;5013;51.840;8.276;2024-02-14T11:05:19;11.50;1.00
9949;DHT22;5013;51.840;8.276;2024-02-14T11:07:49;11.50;99.90
9949;DHT22;5013;51.840;8.276;2024-02-14T11:10:17;11.60;1.00
9949;DHT22;5013;51.840;8.276;2024-02-14T11:12:45;11.60;99.90
9949;DHT22;5013;51.840;8.276;2024-02-14T11:15:16;11.60;99.90
9949;DHT22;5013;51.840;8.276;2024-02-14T11:17:43;11.60;1.00
9949;DHT22;5013;51.840;8.276;2024-02-14T11:20:19;11.60;1.00
9949;DHT22;5013;51.840;8.276;2024-02-14T11:23:05;11.60;99.90
9949;DHT22;5013;51.840;8.276;2024-02-14T11:25:39;11.60;1.00
9949;DHT22;5013;51.840;8.276;2024-02-14T11:28:16;11.60;99.90
9949;DHT22;5013;51.840;8.276;2024-02-14T11:30:42;11.60;1.00
9949;DHT22;5013;51.840;8.276;2024-02-14T11:35:49;11.50;99.90
9949;DHT22;5013;51.840;8.276;2024-02-14T11:38:17;11.50;1.00
9949;DHT22;5013;51.840;8.276;2024-02-14T11:40:43;11.50;97.20
9949;DHT22;5013;51.840;8.276;2024-02-14T11:43:17;11.40;1.00
9949;DHT22;5013;51.840;8.276;2024-02-14T11:45:43;11.50;99.90
9949;DHT22;5013;51.840;8.276;2024-02-14T11:48:14;11.50;1.00
9949;DHT22;5013;51.840;8.276;2024-02-14T11:50:40;11.50;99.90
9949;DHT22;5013;51.840;8.276;2024-02-14T11:53:07;11.50;1.00
9949;DHT22;5013;51.840;8.276;2024-02-14T11:55:37;11.60;1.00
9949;DHT22;5013;51.840;8.276;2024-02-14T11:58:10;11.70;1.00
9949;DHT22;5013;51.840;8.276;2024-02-14T12:00:54;11.80;99.90
9949;DHT22;5013;51.840;8.276;2024-02-14T12:03:24;12.00;99.90
9949;DHT22;5013;51.840;8.276;2024-02-14T12:05:52;12.00;89.90
9949;DHT22;5013;51.840;8.276;2024-02-14T12:08:18;11.90;1.00
9949;DHT22;5013;51.840;8.276;2024-02-14T12:10:44;12.00;99.90
9949;DHT22;5013;51.840;8.276;2024-02-14T12:13:15;11.90;36.90
9949;DHT22;5013;51.840;8.276;2024-02-14T12:15:44;11.90;99.90
9949;DHT22;5013;51.840;8.276;2024-02-14T12:18:10;11.90;40.00
9949;DHT22;5013;51.840;8.276;2024-02-14T12:20:40;11.90;99.90
9949;DHT22;5013;51.840;8.276;2024-02-14T12:23:06;11.90;1.00
9949;DHT22;5013;51.840;8.276;2024-02-14T12:25:32;11.80;1.00
9949;DHT22;5013;51.840;8.276;2024-02-14T12:27:58;11.80;1.00
9949;DHT22;5013;51.840;8.276;2024-02-14T12:30:43;11.80;1.00
9949;DHT22;5013;51.840;8.276;2024-02-14T12:33:12;11.80;99.90
9949;DHT22;5013;51.840;8.276;2024-02-14T12:35:41;11.80;99.90
9949;DHT22;5013;51.840;8.276;2024-02-14T12:38:11;11.90;1.00
9949;DHT22;5013;51.840;8.276;2024-02-14T12:40:38;11.90;1.00
9949;DHT22;5013;51.840;8.276;2024-02-14T12:43:04;11.80;99.90
9949;DHT22;5013;51.840;8.276;2024-02-14T12:45:31;11.80;1.00
9949;DHT22;5013;51.840;8.276;2024-02-14T12:47:57;11.80;1.00
9949;DHT22;5013;51.840;8.276;2024-02-14T12:50:22;11.70;1.00
9949;DHT22;5013;51.840;8.276;2024-02-14T12:52:48;11.70;99.90
9949;DHT22;5013;51.840;8.276;2024-02-14T12:55:14;11.70;1.00
9949;DHT22;5013;51.840;8.276;2024-02-14T12:57:40;11.70;1.00
9949;DHT22;5013;51.840;8.276;2024-02-14T13:00:06;11.80;1.00
9949;DHT22;5013;51.840;8.276;2024-02-14T13:02:34;11.80;1.00
9949;DHT22;5013;51.840;8.276;2024-02-14T13:05:00;11.80;99.90
9949;DHT22;5013;51.840;8.276;2024-02-14T13:07:27;11.90;1.00
9949;DHT22;5013;51.840;8.276;2024-02-14T13:09:53;11.90;1.00
9949;DHT22;5013;51.840;8.276;2024-02-14T13:12:20;11.90;99.90
9949;DHT22;5013;51.840;8.276;2024-02-14T13:14:46;11.90;1.00
9949;DHT22;5013;51.840;8.276;2024-02-14T13:17:12;11.90;1.00
9949;DHT22;5013;51.840;8.276;2024-02-14T13:19:37;12.00;1.00
9949;DHT22;5013;51.840;8.276;2024-02-14T13:22:05;12.00;1.00
9949;DHT22;5013;51.840;8.276;2024-02-14T13:24:31;12.10;99.90
9949;DHT22;5013;51.840;8.276;2024-02-14T13:26:56;12.10;99.90
9949;DHT22;5013;51.840;8.276;2024-02-14T13:29:23;12.10;29.70
9949;DHT22;5013;51.840;8.276;2024-02-14T13:31:50;12.20;99.90
9949;DHT22;5013;51.840;8.276;2024-02-14T13:34:16;12.20;99.90
9949;DHT22;5013;51.840;8.276;2024-02-14T13:36:41;12.20;1.00
9949;DHT22;5013;51.840;8.276;2024-02-14T13:39:07;12.20;1.00
9949;DHT22;5013;51.840;8.276;2024-02-14T13:41:33;12.20;1.00
9949;DHT22;5013;51.840;8.276;2024-02-14T13:44:01;12.10;1.00
9949;DHT22;5013;51.840;8.276;2024-02-14T13:46:27;12.10;1.00
9949;DHT22;5013;51.840;8.276;2024-02-14T13:48:52;12.10;1.00
9949;DHT22;5013;51.840;8.276;2024-02-14T13:51:18;12.10;1.00
9949;DHT22;5013;51.840;8.276;2024-02-14T13:53:43;12.10;99.90
9949;DHT22;5013;51.840;8.276;2024-02-14T13:56:09;12.20;1.00
9949;DHT22;5013;51.840;8.276;2024-02-14T13:58:35;12.30;99.90
9949;DHT22;5013;51.840;8.276;2024-02-14T14:01:00;12.20;1.00
9949;DHT22;5013;51.840;8.276;2024-02-14T14:03:26;12.30;99.90
9949;DHT22;5013;51.840;8.276;2024-02-14T14:05:53;12.20;20.60
9949;DHT22;5013;51.840;8.276;2024-02-14T14:08:18;12.20;1.00
9949;DHT22;5013;51.840;8.276;2024-02-14T14:10:44;12.20;1.00
9949;DHT22;5013;51.840;8.276;2024-02-14T14:13:10;12.30;1.00
9949;DHT22;5013;51.840;8.276;2024-02-14T14:15:36;12.30;1.00
9949;DHT22;5013;51.840;8.276;2024-02-14T14:18:01;12.40;1.00
9949;DHT22;5013;51.840;8.276;2024-02-14T14:20:27;12.50;99.90
9949;DHT22;5013;51.840;8.276;2024-02-14T14:22:53;12.50;99.90
9949;DHT22;5013;51.840;8.276;2024-02-14T14:25:18;12.60;1.00
9949;DHT22;5013;51.840;8.276;2024-02-14T14:27:44;12.60;99.90
9949;DHT22;5013;51.840;8.276;2024-02-14T14:30:10;12.70;1.00
9949;DHT22;5013;51.840;8.276;2024-02-14T14:32:36;12.90;1.00
9949;DHT22;5013;51.840;8.276;2024-02-14T14:35:02;12.90;1.00
9949;DHT22;5013;51.840;8.276;2024-02-14T14:37:27;13.00;1.00
9949;DHT22;5013;51.840;8.276;2024-02-14T14:39:53;13.00;81.80
9949;DHT22;5013;51.840;8.276;2024-02-14T14:42:20;12.90;1.00
9949;DHT22;5013;51.840;8.276;2024-02-14T14:44:46;12.90;1.00
9949;DHT22;5013;51.840;8.276;2024-02-14T14:47:12;12.70;1.00
9949;DHT22;5013;51.840;8.276;2024-02-14T14:49:38;12.60;99.90
9949;DHT22;5013;51.840;8.276;2024-02-14T14:52:04;12.50;99.90
9949;DHT22;5013;51.840;8.276;2024-02-14T14:54:30;12.50;99.90
9949;DHT22;5013;51.840;8.276;2024-02-14T14:56:55;12.50;99.90
9949;DHT22;5013;51.840;8.276;2024-02-14T14:59:21;12.50;1.00
9949;DHT22;5013;51.840;8.276;2024-02-14T15:01:48;12.40;1.00
9949;DHT22;5013;51.840;8.276;2024-02-14T15:04:14;12.40;1.00
9949;DHT22;5013;51.840;8.276;2024-02-14T15:06:40;12.30;99.90
9949;DHT22;5013;51.840;8.276;2024-02-14T15:09:06;12.30;99.90
9949;DHT22;5013;51.840;8.276;2024-02-14T15:11:32;12.30;1.00
9949;DHT22;5013;51.840;8.276;2024-02-14T15:13:58;12.20;99.90
9949;DHT22;5013;51.840;8.276;2024-02-14T15:16:23;12.10;1.00
9949;DHT22;5013;51.840;8.276;2024-02-14T15:18:49;12.10;99.90
9949;DHT22;5013;51.840;8.276;2024-02-14T15:21:15;12.00;99.90
9949;DHT22;5013;51.840;8.276;2024-02-14T15:23:41;12.00;1.00
9949;DHT22;5013;51.840;8.276;2024-02-14T15:26:06;11.90;1.00
9949;DHT22;5013;51.840;8.276;2024-02-14T15:28:34;11.90;1.00
9949;DHT22;5013;51.840;8.276;2024-02-14T15:31:06;11.80;1.00
9949;DHT22;5013;51.840;8.276;2024-02-14T15:33:51;11.80;1.00
9949;DHT22;5013;51.840;8.276;2024-02-14T15:36:17;11.90;1.00
9949;DHT22;5013;51.840;8.276;2024-02-14T15:38:42;11.90;1.00
9949;DHT22;5013;51.840;8.276;2024-02-14T15:41:08;11.80;1.00
9949;DHT22;5013;51.840;8.276;2024-02-14T15:43:35;11.80;84.30
9949;DHT22;5013;51.840;8.276;2024-02-14T15:46:00;11.80;77.30
9949;DHT22;5013;51.840;8.276;2024-02-14T15:48:26;11.80;99.90
9949;DHT22;5013;51.840;8.276;2024-02-14T15:50:55;11.80;99.90
9949;DHT22;5013;51.840;8.276;2024-02-14T15:53:22;11.70;99.90
9949;DHT22;5013;51.840;8.276;2024-02-14T15:55:52;11.70;99.90
9949;DHT22;5013;51.840;8.276;2024-02-14T15:58:17;11.70;99.90
9949;DHT22;5013;51.840;8.276;2024-02-14T16:00:43;11.60;99.90
9949;DHT22;5013;51.840;8.276;2024-02-14T16:03:09;11.60;99.90
9949;DHT22;5013;51.840;8.276;2024-02-14T16:05:37;11.60;99.90
9949;DHT22;5013;51.840;8.276;2024-02-14T16:08:03;11.60;99.90
9949;DHT22;5013;51.840;8.276;2024-02-14T16:10:28;11.60;99.90
9949;DHT22;5013;51.840;8.276;2024-02-14T16:12:54;11.50;99.90
9949;DHT22;5013;51.840;8.276;2024-02-14T16:15:20;11.50;99.90
9949;DHT22;5013;51.840;8.276;2024-02-14T16:17:46;11.50;99.90
9949;DHT22;5013;51.840;8.276;2024-02-14T16:20:13;11.50;99.90
9949;DHT22;5013;51.840;8.276;2024-02-14T16:22:39;11.40;99.90